sensor_id;sensor_type;location;lat;lon;timestamp;P1;durP1;ratioP1;P2;durP2;ratioP2
6475;SDS011;3271;51.910;5.840;2023-03-13T00:02:03;10.50;;;3.72;;
6475;SDS011;3271;51.910;5.840;2023-03-13T00:04:29;11.45;;;4.20;;
6475;SDS011;3271;51.910;5.840;2023-03-13T00:06:55;13.05;;;3.08;;
6475;SDS011;3271;51.910;5.840;2023-03-13T00:09:21;9.82;;;3.63;;
6475;SDS011;3271;51.910;5.840;2023-03-13T00:11:47;14.70;;;4.03;;
6475;SDS011;3271;51.910;5.840;2023-03-13T00:14:13;10.70;;;3.33;;
6475;SDS011;3271;51.910;5.840;2023-03-13T00:16:39;10.20;;;3.65;;
6475;SDS011;3271;51.910;5.840;2023-03-13T00:19:06;12.02;;;3.63;;
6475;SDS011;3271;51.910;5.840;2023-03-13T00:21:32;12.13;;;3.60;;
6475;SDS011;3271;51.910;5.840;2023-03-13T00:23:58;11.43;;;3.70;;
6475;SDS011;3271;51.910;5.840;2023-03-13T00:26:25;13.90;;;3.35;;
6475;SDS011;3271;51.910;5.840;2023-03-13T00:28:51;11.57;;;3.90;;
6475;SDS011;3271;51.910;5.840;2023-03-13T00:31:22;9.95;;;4.32;;
6475;SDS011;3271;51.910;5.840;2023-03-13T00:33:48;10.77;;;2.80;;
6475;SDS011;3271;51.910;5.840;2023-03-13T00:36:17;11.93;;;3.58;;
6475;SDS011;3271;51.910;5.840;2023-03-13T00:38:43;8.85;;;3.45;;
6475;SDS011;3271;51.910;5.840;2023-03-13T00:41:13;10.20;;;4.07;;
6475;SDS011;3271;51.910;5.840;2023-03-13T00:43:40;10.85;;;3.92;;
6475;SDS011;3271;51.910;5.840;2023-03-13T00:46:07;13.00;;;3.42;;
6475;SDS011;3271;51.910;5.840;2023-03-13T00:48:33;9.30;;;3.55;;
6475;SDS011;3271;51.910;5.840;2023-03-13T00:50:59;8.38;;;2.67;;
6475;SDS011;3271;51.910;5.840;2023-03-13T00:53:25;10.75;;;2.85;;
6475;SDS011;3271;51.910;5.840;2023-03-13T00:58:20;11.50;;;3.67;;
6475;SDS011;3271;51.910;5.840;2023-03-13T01:00:46;7.95;;;2.90;;
6475;SDS011;3271;51.910;5.840;2023-03-13T01:03:12;7.55;;;2.65;;
6475;SDS011;3271;51.910;5.840;2023-03-13T01:05:38;9.68;;;3.33;;
6475;SDS011;3271;51.910;5.840;2023-03-13T01:08:04;5.80;;;2.67;;
6475;SDS011;3271;51.910;5.840;2023-03-13T01:10:30;9.38;;;2.97;;
6475;SDS011;3271;51.910;5.840;2023-03-13T01:12:55;6.20;;;2.65;;
6475;SDS011;3271;51.910;5.840;2023-03-13T01:15:21;7.53;;;2.78;;
6475;SDS011;3271;51.910;5.840;2023-03-13T01:17:48;8.98;;;3.33;;
6475;SDS011;3271;51.910;5.840;2023-03-13T01:20:14;10.27;;;3.97;;
6475;SDS011;3271;51.910;5.840;2023-03-13T01:22:40;7.75;;;3.35;;
6475;SDS011;3271;51.910;5.840;2023-03-13T01:25:06;9.07;;;3.25;;
6475;SDS011;3271;51.910;5.840;2023-03-13T01:27:32;5.05;;;2.13;;
6475;SDS011;3271;51.910;5.840;2023-03-13T01:29:58;8.25;;;2.60;;
6475;SDS011;3271;51.910;5.840;2023-03-13T01:32:24;9.07;;;2.97;;
6475;SDS011;3271;51.910;5.840;2023-03-13T01:34:49;5.50;;;2.17;;
6475;SDS011;3271;51.910;5.840;2023-03-13T01:37:15;8.98;;;3.05;;
6475;SDS011;3271;51.910;5.840;2023-03-13T01:39:41;10.07;;;3.90;;
6475;SDS011;3271;51.910;5.840;2023-03-13T01:42:07;9.82;;;2.58;;
6475;SDS011;3271;51.910;5.840;2023-03-13T01:44:47;11.60;;;3.35;;
6475;SDS011;3271;51.910;5.840;2023-03-13T01:47:13;7.20;;;3.25;;
6475;SDS011;3271;51.910;5.840;2023-03-13T01:49:39;7.63;;;3.15;;
6475;SDS011;3271;51.910;5.840;2023-03-13T01:52:07;7.68;;;2.45;;
6475;SDS011;3271;51.910;5.840;2023-03-13T01:54:36;6.50;;;2.55;;
6475;SDS011;3271;51.910;5.840;2023-03-13T01:59:51;6.97;;;2.42;;
6475;SDS011;3271;51.910;5.840;2023-03-13T02:02:17;6.95;;;2.63;;
6475;SDS011;3271;51.910;5.840;2023-03-13T02:04:45;5.03;;;1.90;;
6475;SDS011;3271;51.910;5.840;2023-03-13T02:07:16;5.03;;;2.10;;
6475;SDS011;3271;51.910;5.840;2023-03-13T02:09:43;5.20;;;2.47;;
6475;SDS011;3271;51.910;5.840;2023-03-13T02:12:23;4.38;;;2.35;;
6475;SDS011;3271;51.910;5.840;2023-03-13T02:14:51;5.20;;;2.50;;
6475;SDS011;3271;51.910;5.840;2023-03-13T02:17:17;5.05;;;2.00;;
6475;SDS011;3271;51.910;5.840;2023-03-13T02:19:44;4.95;;;2.38;;
6475;SDS011;3271;51.910;5.840;2023-03-13T02:24:59;6.47;;;2.17;;
6475;SDS011;3271;51.910;5.840;2023-03-13T02:27:27;4.80;;;2.20;;
6475;SDS011;3271;51.910;5.840;2023-03-13T02:29:53;3.58;;;2.17;;
6475;SDS011;3271;51.910;5.840;2023-03-13T02:32:19;7.07;;;3.03;;
6475;SDS011;3271;51.910;5.840;2023-03-13T02:34:46;4.07;;;2.03;;
6475;SDS011;3271;51.910;5.840;2023-03-13T02:37:13;5.32;;;2.33;;
6475;SDS011;3271;51.910;5.840;2023-03-13T02:39:43;5.15;;;3.13;;
6475;SDS011;3271;51.910;5.840;2023-03-13T02:42:10;4.95;;;2.50;;
6475;SDS011;3271;51.910;5.840;2023-03-13T02:44:40;4.57;;;2.63;;
6475;SDS011;3271;51.910;5.840;2023-03-13T02:47:06;3.58;;;2.10;;
6475;SDS011;3271;51.910;5.840;2023-03-13T02:49:35;4.18;;;2.58;;
6475;SDS011;3271;51.910;5.840;2023-03-13T02:52:11;3.20;;;2.40;;
6475;SDS011;3271;51.910;5.840;2023-03-13T02:54:38;3.25;;;2.53;;
6475;SDS011;3271;51.910;5.840;2023-03-13T02:57:05;3.22;;;2.08;;
6475;SDS011;3271;51.910;5.840;2023-03-13T02:59:31;5.18;;;2.20;;
6475;SDS011;3271;51.910;5.840;2023-03-13T03:01:58;5.60;;;2.55;;
6475;SDS011;3271;51.910;5.840;2023-03-13T03:04:24;4.95;;;2.42;;
6475;SDS011;3271;51.910;5.840;2023-03-13T03:06:51;5.38;;;2.70;;
6475;SDS011;3271;51.910;5.840;2023-03-13T03:09:17;3.53;;;2.42;;
6475;SDS011;3271;51.910;5.840;2023-03-13T03:11:44;3.92;;;2.58;;
6475;SDS011;3271;51.910;5.840;2023-03-13T03:14:10;3.40;;;1.90;;
6475;SDS011;3271;51.910;5.840;2023-03-13T03:16:36;3.10;;;2.00;;
6475;SDS011;3271;51.910;5.840;2023-03-13T03:19:02;4.28;;;1.95;;
6475;SDS011;3271;51.910;5.840;2023-03-13T03:21:28;3.05;;;2.50;;
6475;SDS011;3271;51.910;5.840;2023-03-13T03:23:54;4.50;;;2.20;;
6475;SDS011;3271;51.910;5.840;2023-03-13T03:26:20;3.40;;;2.15;;
6475;SDS011;3271;51.910;5.840;2023-03-13T03:28:46;4.53;;;2.25;;
6475;SDS011;3271;51.910;5.840;2023-03-13T03:31:13;2.63;;;1.55;;
6475;SDS011;3271;51.910;5.840;2023-03-13T03:33:39;4.13;;;2.47;;
6475;SDS011;3271;51.910;5.840;2023-03-13T03:36:07;4.20;;;2.40;;
6475;SDS011;3271;51.910;5.840;2023-03-13T03:38:33;3.25;;;1.88;;
6475;SDS011;3271;51.910;5.840;2023-03-13T03:40:59;4.43;;;2.58;;
6475;SDS011;3271;51.910;5.840;2023-03-13T03:43:25;2.92;;;1.92;;
6475;SDS011;3271;51.910;5.840;2023-03-13T03:45:51;2.67;;;2.25;;
6475;SDS011;3271;51.910;5.840;2023-03-13T03:48:17;2.83;;;2.45;;
6475;SDS011;3271;51.910;5.840;2023-03-13T03:50:43;3.67;;;2.00;;
6475;SDS011;3271;51.910;5.840;2023-03-13T03:53:09;4.70;;;2.20;;
6475;SDS011;3271;51.910;5.840;2023-03-13T03:55:35;3.15;;;2.63;;
6475;SDS011;3271;51.910;5.840;2023-03-13T03:58:01;2.95;;;1.88;;
6475;SDS011;3271;51.910;5.840;2023-03-13T04:00:27;3.08;;;1.80;;
6475;SDS011;3271;51.910;5.840;2023-03-13T04:02:53;2.88;;;2.10;;
6475;SDS011;3271;51.910;5.840;2023-03-13T04:05:20;3.88;;;2.30;;
6475;SDS011;3271;51.910;5.840;2023-03-13T04:07:46;2.47;;;1.92;;
6475;SDS011;3271;51.910;5.840;2023-03-13T04:10:12;2.67;;;2.10;;
6475;SDS011;3271;51.910;5.840;2023-03-13T04:12:38;3.80;;;2.70;;
6475;SDS011;3271;51.910;5.840;2023-03-13T04:15:04;2.45;;;2.10;;
6475;SDS011;3271;51.910;5.840;2023-03-13T04:17:30;2.55;;;1.98;;
6475;SDS011;3271;51.910;5.840;2023-03-13T04:19:56;2.53;;;2.20;;
6475;SDS011;3271;51.910;5.840;2023-03-13T04:22:22;2.33;;;2.10;;
6475;SDS011;3271;51.910;5.840;2023-03-13T04:24:48;3.20;;;2.00;;
6475;SDS011;3271;51.910;5.840;2023-03-13T04:27:14;3.47;;;2.30;;
6475;SDS011;3271;51.910;5.840;2023-03-13T04:29:40;2.75;;;2.00;;
6475;SDS011;3271;51.910;5.840;2023-03-13T04:32:06;2.33;;;2.13;;
6475;SDS011;3271;51.910;5.840;2023-03-13T04:34:32;3.15;;;2.40;;
6475;SDS011;3271;51.910;5.840;2023-03-13T04:36:58;2.40;;;2.17;;
6475;SDS011;3271;51.910;5.840;2023-03-13T04:39:24;2.88;;;2.60;;
6475;SDS011;3271;51.910;5.840;2023-03-13T04:41:53;2.10;;;1.90;;
6475;SDS011;3271;51.910;5.840;2023-03-13T04:44:19;3.22;;;2.35;;
6475;SDS011;3271;51.910;5.840;2023-03-13T04:46:45;2.70;;;2.40;;
6475;SDS011;3271;51.910;5.840;2023-03-13T04:49:11;4.00;;;2.67;;
6475;SDS011;3271;51.910;5.840;2023-03-13T04:51:38;3.60;;;2.45;;
6475;SDS011;3271;51.910;5.840;2023-03-13T04:54:04;2.78;;;2.00;;
6475;SDS011;3271;51.910;5.840;2023-03-13T04:56:30;3.05;;;2.45;;
6475;SDS011;3271;51.910;5.840;2023-03-13T04:58:56;2.65;;;2.45;;
6475;SDS011;3271;51.910;5.840;2023-03-13T05:01:22;2.97;;;2.70;;
6475;SDS011;3271;51.910;5.840;2023-03-13T05:03:48;3.13;;;2.83;;
6475;SDS011;3271;51.910;5.840;2023-03-13T05:06:14;2.70;;;2.40;;
6475;SDS011;3271;51.910;5.840;2023-03-13T05:08:39;2.95;;;2.38;;
6475;SDS011;3271;51.910;5.840;2023-03-13T05:11:05;4.13;;;2.72;;
6475;SDS011;3271;51.910;5.840;2023-03-13T05:13:31;3.47;;;2.47;;
6475;SDS011;3271;51.910;5.840;2023-03-13T05:15:57;5.15;;;2.83;;
6475;SDS011;3271;51.910;5.840;2023-03-13T05:18:23;3.50;;;3.10;;
6475;SDS011;3271;51.910;5.840;2023-03-13T05:20:49;3.60;;;2.47;;
6475;SDS011;3271;51.910;5.840;2023-03-13T05:23:15;3.97;;;2.60;;
6475;SDS011;3271;51.910;5.840;2023-03-13T05:25:41;3.90;;;2.90;;
6475;SDS011;3271;51.910;5.840;2023-03-13T05:28:07;2.75;;;2.53;;
6475;SDS011;3271;51.910;5.840;2023-03-13T05:30:33;4.72;;;2.88;;
6475;SDS011;3271;51.910;5.840;2023-03-13T05:32:59;3.10;;;2.70;;
6475;SDS011;3271;51.910;5.840;2023-03-13T05:35:25;3.63;;;2.85;;
6475;SDS011;3271;51.910;5.840;2023-03-13T05:37:51;2.72;;;2.35;;
6475;SDS011;3271;51.910;5.840;2023-03-13T05:40:17;3.08;;;2.80;;
6475;SDS011;3271;51.910;5.840;2023-03-13T05:42:43;3.03;;;2.67;;
6475;SDS011;3271;51.910;5.840;2023-03-13T05:45:09;2.97;;;2.67;;
6475;SDS011;3271;51.910;5.840;2023-03-13T05:47:35;3.25;;;2.92;;
6475;SDS011;3271;51.910;5.840;2023-03-13T05:50:02;5.85;;;2.80;;
6475;SDS011;3271;51.910;5.840;2023-03-13T05:52:28;4.55;;;2.50;;
6475;SDS011;3271;51.910;5.840;2023-03-13T05:54:54;3.40;;;2.45;;
6475;SDS011;3271;51.910;5.840;2023-03-13T05:57:20;4.32;;;2.78;;
6475;SDS011;3271;51.910;5.840;2023-03-13T05:59:46;4.47;;;2.90;;
6475;SDS011;3271;51.910;5.840;2023-03-13T06:02:12;2.38;;;2.17;;
6475;SDS011;3271;51.910;5.840;2023-03-13T06:04:38;3.83;;;2.58;;
6475;SDS011;3271;51.910;5.840;2023-03-13T06:07:04;3.63;;;2.67;;
6475;SDS011;3271;51.910;5.840;2023-03-13T06:09:30;3.08;;;2.60;;
6475;SDS011;3271;51.910;5.840;2023-03-13T06:11:56;5.13;;;2.90;;
6475;SDS011;3271;51.910;5.840;2023-03-13T06:14:22;3.45;;;2.28;;
6475;SDS011;3271;51.910;5.840;2023-03-13T06:16:48;3.03;;;2.63;;
6475;SDS011;3271;51.910;5.840;2023-03-13T06:19:14;3.67;;;2.33;;
6475;SDS011;3271;51.910;5.840;2023-03-13T06:21:40;2.70;;;2.40;;
6475;SDS011;3271;51.910;5.840;2023-03-13T06:24:06;4.55;;;2.35;;
6475;SDS011;3271;51.910;5.840;2023-03-13T06:26:32;3.25;;;2.25;;
6475;SDS011;3271;51.910;5.840;2023-03-13T06:28:58;3.33;;;2.38;;
6475;SDS011;3271;51.910;5.840;2023-03-13T06:31:23;2.88;;;2.55;;
6475;SDS011;3271;51.910;5.840;2023-03-13T06:33:53;2.17;;;1.90;;
6475;SDS011;3271;51.910;5.840;2023-03-13T06:36:19;5.82;;;2.25;;
6475;SDS011;3271;51.910;5.840;2023-03-13T06:38:45;4.00;;;2.83;;
6475;SDS011;3271;51.910;5.840;2023-03-13T06:41:11;6.05;;;2.33;;
6475;SDS011;3271;51.910;5.840;2023-03-13T06:43:37;4.90;;;2.55;;
6475;SDS011;3271;51.910;5.840;2023-03-13T06:46:05;4.15;;;2.50;;
6475;SDS011;3271;51.910;5.840;2023-03-13T06:48:31;5.78;;;2.85;;
6475;SDS011;3271;51.910;5.840;2023-03-13T06:50:57;6.18;;;2.55;;
6475;SDS011;3271;51.910;5.840;2023-03-13T06:53:23;3.72;;;2.45;;
6475;SDS011;3271;51.910;5.840;2023-03-13T06:55:49;2.70;;;2.10;;
6475;SDS011;3271;51.910;5.840;2023-03-13T06:58:15;4.65;;;2.60;;
6475;SDS011;3271;51.910;5.840;2023-03-13T07:00:41;7.75;;;2.47;;
6475;SDS011;3271;51.910;5.840;2023-03-13T07:03:08;3.90;;;2.40;;
6475;SDS011;3271;51.910;5.840;2023-03-13T07:05:34;3.38;;;2.03;;
6475;SDS011;3271;51.910;5.840;2023-03-13T07:08:00;6.65;;;2.20;;
6475;SDS011;3271;51.910;5.840;2023-03-13T07:10:26;4.50;;;2.55;;
6475;SDS011;3271;51.910;5.840;2023-03-13T07:12:52;2.42;;;1.92;;
6475;SDS011;3271;51.910;5.840;2023-03-13T07:15:18;4.47;;;2.85;;
6475;SDS011;3271;51.910;5.840;2023-03-13T07:17:44;3.90;;;2.40;;
6475;SDS011;3271;51.910;5.840;2023-03-13T07:20:10;4.10;;;2.25;;
6475;SDS011;3271;51.910;5.840;2023-03-13T07:22:36;6.65;;;2.35;;
6475;SDS011;3271;51.910;5.840;2023-03-13T07:25:03;5.63;;;2.58;;
6475;SDS011;3271;51.910;5.840;2023-03-13T07:27:29;3.53;;;2.05;;
6475;SDS011;3271;51.910;5.840;2023-03-13T07:29:55;3.10;;;2.20;;
6475;SDS011;3271;51.910;5.840;2023-03-13T07:32:21;6.55;;;2.85;;
6475;SDS011;3271;51.910;5.840;2023-03-13T07:34:47;5.10;;;2.35;;
6475;SDS011;3271;51.910;5.840;2023-03-13T07:37:13;4.43;;;2.25;;
6475;SDS011;3271;51.910;5.840;2023-03-13T07:39:40;4.80;;;2.53;;
6475;SDS011;3271;51.910;5.840;2023-03-13T07:42:06;6.68;;;2.70;;
6475;SDS011;3271;51.910;5.840;2023-03-13T07:44:32;3.65;;;1.80;;
6475;SDS011;3271;51.910;5.840;2023-03-13T07:46:58;4.82;;;2.60;;
6475;SDS011;3271;51.910;5.840;2023-03-13T07:49:24;5.93;;;2.35;;
6475;SDS011;3271;51.910;5.840;2023-03-13T07:51:50;4.85;;;2.70;;
6475;SDS011;3271;51.910;5.840;2023-03-13T07:54:16;5.50;;;2.88;;
6475;SDS011;3271;51.910;5.840;2023-03-13T07:56:42;5.40;;;2.70;;
6475;SDS011;3271;51.910;5.840;2023-03-13T07:59:08;5.47;;;2.60;;
6475;SDS011;3271;51.910;5.840;2023-03-13T08:01:35;6.38;;;2.42;;
6475;SDS011;3271;51.910;5.840;2023-03-13T08:04:01;4.03;;;2.35;;
6475;SDS011;3271;51.910;5.840;2023-03-13T08:06:28;4.65;;;2.08;;
6475;SDS011;3271;51.910;5.840;2023-03-13T08:08:57;3.17;;;2.70;;
6475;SDS011;3271;51.910;5.840;2023-03-13T08:11:24;2.90;;;1.88;;
6475;SDS011;3271;51.910;5.840;2023-03-13T08:13:54;3.47;;;1.98;;
6475;SDS011;3271;51.910;5.840;2023-03-13T08:16:21;3.28;;;2.20;;
6475;SDS011;3271;51.910;5.840;2023-03-13T08:18:48;4.45;;;1.90;;
6475;SDS011;3271;51.910;5.840;2023-03-13T08:21:16;4.25;;;2.15;;
6475;SDS011;3271;51.910;5.840;2023-03-13T08:23:42;4.72;;;2.42;;
6475;SDS011;3271;51.910;5.840;2023-03-13T08:26:10;5.43;;;2.30;;
6475;SDS011;3271;51.910;5.840;2023-03-13T08:28:36;4.93;;;2.28;;
6475;SDS011;3271;51.910;5.840;2023-03-13T08:31:13;3.35;;;1.80;;
6475;SDS011;3271;51.910;5.840;2023-03-13T08:33:41;3.70;;;1.88;;
6475;SDS011;3271;51.910;5.840;2023-03-13T08:36:09;5.03;;;2.25;;
6475;SDS011;3271;51.910;5.840;2023-03-13T08:38:35;6.18;;;2.03;;
6475;SDS011;3271;51.910;5.840;2023-03-13T08:41:02;3.78;;;2.10;;
6475;SDS011;3271;51.910;5.840;2023-03-13T08:43:28;6.22;;;2.20;;
6475;SDS011;3271;51.910;5.840;2023-03-13T08:45:54;4.55;;;2.35;;
6475;SDS011;3271;51.910;5.840;2023-03-13T08:48:20;1.90;;;1.70;;
6475;SDS011;3271;51.910;5.840;2023-03-13T08:50:46;3.15;;;1.83;;
6475;SDS011;3271;51.910;5.840;2023-03-13T08:53:12;4.57;;;1.90;;
6475;SDS011;3271;51.910;5.840;2023-03-13T08:55:38;6.15;;;2.72;;
6475;SDS011;3271;51.910;5.840;2023-03-13T08:58:04;5.55;;;2.55;;
6475;SDS011;3271;51.910;5.840;2023-03-13T09:00:30;4.32;;;2.30;;
6475;SDS011;3271;51.910;5.840;2023-03-13T09:02:56;6.38;;;2.25;;
6475;SDS011;3271;51.910;5.840;2023-03-13T09:05:22;3.10;;;2.13;;
6475;SDS011;3271;51.910;5.840;2023-03-13T09:07:48;6.43;;;2.38;;
6475;SDS011;3271;51.910;5.840;2023-03-13T09:10:14;4.80;;;2.63;;
6475;SDS011;3271;51.910;5.840;2023-03-13T09:12:40;5.05;;;2.13;;
6475;SDS011;3271;51.910;5.840;2023-03-13T09:15:06;4.43;;;2.13;;
6475;SDS011;3271;51.910;5.840;2023-03-13T09:17:33;5.15;;;2.65;;
6475;SDS011;3271;51.910;5.840;2023-03-13T09:19:58;2.83;;;1.77;;
6475;SDS011;3271;51.910;5.840;2023-03-13T09:22:24;5.47;;;2.03;;
6475;SDS011;3271;51.910;5.840;2023-03-13T09:24:50;7.32;;;2.50;;
6475;SDS011;3271;51.910;5.840;2023-03-13T09:27:16;3.63;;;1.90;;
6475;SDS011;3271;51.910;5.840;2023-03-13T09:29:42;3.97;;;2.08;;
6475;SDS011;3271;51.910;5.840;2023-03-13T09:32:09;5.20;;;1.98;;
6475;SDS011;3271;51.910;5.840;2023-03-13T09:34:35;4.65;;;2.00;;
6475;SDS011;3271;51.910;5.840;2023-03-13T09:37:01;4.65;;;2.10;;
6475;SDS011;3271;51.910;5.840;2023-03-13T09:39:27;4.40;;;1.92;;
6475;SDS011;3271;51.910;5.840;2023-03-13T09:44:25;2.50;;;1.92;;
6475;SDS011;3271;51.910;5.840;2023-03-13T09:46:58;3.35;;;1.80;;
6475;SDS011;3271;51.910;5.840;2023-03-13T09:51:52;3.75;;;2.28;;
6475;SDS011;3271;51.910;5.840;2023-03-13T09:54:22;5.15;;;2.17;;
6475;SDS011;3271;51.910;5.840;2023-03-13T09:56:53;2.35;;;1.92;;
6475;SDS011;3271;51.910;5.840;2023-03-13T10:02:15;3.70;;;2.00;;
6475;SDS011;3271;51.910;5.840;2023-03-13T10:04:45;4.80;;;2.00;;
6475;SDS011;3271;51.910;5.840;2023-03-13T10:07:12;2.30;;;1.58;;
6475;SDS011;3271;51.910;5.840;2023-03-13T10:09:38;3.15;;;2.00;;
6475;SDS011;3271;51.910;5.840;2023-03-13T10:12:39;2.53;;;1.92;;
6475;SDS011;3271;51.910;5.840;2023-03-13T10:15:05;5.03;;;1.85;;
6475;SDS011;3271;51.910;5.840;2023-03-13T10:17:38;2.33;;;1.63;;
6475;SDS011;3271;51.910;5.840;2023-03-13T10:20:16;2.70;;;1.70;;
6475;SDS011;3271;51.910;5.840;2023-03-13T10:22:43;2.47;;;2.10;;
6475;SDS011;3271;51.910;5.840;2023-03-13T10:28:09;3.47;;;2.05;;
6475;SDS011;3271;51.910;5.840;2023-03-13T10:30:35;2.33;;;1.73;;
6475;SDS011;3271;51.910;5.840;2023-03-13T10:35:35;4.28;;;1.77;;
6475;SDS011;3271;51.910;5.840;2023-03-13T10:38:02;4.50;;;2.25;;
6475;SDS011;3271;51.910;5.840;2023-03-13T10:40:29;3.95;;;2.20;;
6475;SDS011;3271;51.910;5.840;2023-03-13T10:43:02;3.97;;;1.85;;
6475;SDS011;3271;51.910;5.840;2023-03-13T10:45:33;3.00;;;2.08;;
6475;SDS011;3271;51.910;5.840;2023-03-13T10:48:00;2.53;;;1.88;;
6475;SDS011;3271;51.910;5.840;2023-03-13T10:50:26;2.63;;;1.85;;
6475;SDS011;3271;51.910;5.840;2023-03-13T10:52:53;2.70;;;1.80;;
6475;SDS011;3271;51.910;5.840;2023-03-13T10:55:23;3.30;;;1.98;;
6475;SDS011;3271;51.910;5.840;2023-03-13T11:02:59;3.83;;;2.15;;
6475;SDS011;3271;51.910;5.840;2023-03-13T11:05:28;3.00;;;1.60;;
6475;SDS011;3271;51.910;5.840;2023-03-13T11:07:55;5.00;;;1.83;;
6475;SDS011;3271;51.910;5.840;2023-03-13T11:10:24;2.13;;;1.58;;
6475;SDS011;3271;51.910;5.840;2023-03-13T11:12:55;3.47;;;1.83;;
6475;SDS011;3271;51.910;5.840;2023-03-13T11:17:50;1.88;;;1.70;;
6475;SDS011;3271;51.910;5.840;2023-03-13T11:20:20;2.88;;;1.88;;
6475;SDS011;3271;51.910;5.840;2023-03-13T11:22:52;7.18;;;4.65;;
6475;SDS011;3271;51.910;5.840;2023-03-13T11:25:21;1.73;;;1.63;;
6475;SDS011;3271;51.910;5.840;2023-03-13T11:28:06;2.60;;;1.40;;
6475;SDS011;3271;51.910;5.840;2023-03-13T11:33:09;2.22;;;1.40;;
6475;SDS011;3271;51.910;5.840;2023-03-13T11:35:45;1.67;;;1.30;;
6475;SDS011;3271;51.910;5.840;2023-03-13T11:38:14;1.75;;;1.58;;
6475;SDS011;3271;51.910;5.840;2023-03-13T11:43:22;1.88;;;1.42;;
6475;SDS011;3271;51.910;5.840;2023-03-13T11:46:02;3.05;;;1.70;;
6475;SDS011;3271;51.910;5.840;2023-03-13T11:53:59;1.40;;;1.30;;
6475;SDS011;3271;51.910;5.840;2023-03-13T11:56:34;3.80;;;1.63;;
6475;SDS011;3271;51.910;5.840;2023-03-13T11:59:23;2.97;;;2.03;;
6475;SDS011;3271;51.910;5.840;2023-03-13T12:02:05;2.35;;;1.33;;
6475;SDS011;3271;51.910;5.840;2023-03-13T12:04:41;1.80;;;1.70;;
6475;SDS011;3271;51.910;5.840;2023-03-13T12:07:17;2.28;;;1.50;;
6475;SDS011;3271;51.910;5.840;2023-03-13T12:09:49;1.50;;;1.30;;
6475;SDS011;3271;51.910;5.840;2023-03-13T12:12:30;2.58;;;1.63;;
6475;SDS011;3271;51.910;5.840;2023-03-13T12:14:59;3.15;;;1.30;;
6475;SDS011;3271;51.910;5.840;2023-03-13T12:17:31;2.25;;;1.17;;
6475;SDS011;3271;51.910;5.840;2023-03-13T12:20:05;3.50;;;1.27;;
6475;SDS011;3271;51.910;5.840;2023-03-13T12:22:38;1.88;;;1.20;;
6475;SDS011;3271;51.910;5.840;2023-03-13T12:25:14;2.30;;;1.40;;
6475;SDS011;3271;51.910;5.840;2023-03-13T12:27:50;3.97;;;1.60;;
6475;SDS011;3271;51.910;5.840;2023-03-13T12:30:18;3.97;;;1.38;;
6475;SDS011;3271;51.910;5.840;2023-03-13T12:32:57;2.80;;;1.58;;
6475;SDS011;3271;51.910;5.840;2023-03-13T12:35:27;1.73;;;1.23;;
6475;SDS011;3271;51.910;5.840;2023-03-13T12:38:11;2.35;;;1.20;;
6475;SDS011;3271;51.910;5.840;2023-03-13T12:40:40;2.80;;;1.30;;
6475;SDS011;3271;51.910;5.840;2023-03-13T12:43:13;4.63;;;1.73;;
6475;SDS011;3271;51.910;5.840;2023-03-13T12:45:50;2.67;;;1.45;;
6475;SDS011;3271;51.910;5.840;2023-03-13T12:53:32;2.25;;;1.40;;
6475;SDS011;3271;51.910;5.840;2023-03-13T12:58:55;3.97;;;2.13;;
6475;SDS011;3271;51.910;5.840;2023-03-13T13:03:59;3.13;;;1.67;;
6475;SDS011;3271;51.910;5.840;2023-03-13T13:06:27;3.30;;;1.58;;
6475;SDS011;3271;51.910;5.840;2023-03-13T13:09:02;4.57;;;1.75;;
6475;SDS011;3271;51.910;5.840;2023-03-13T13:14:00;3.42;;;1.80;;
6475;SDS011;3271;51.910;5.840;2023-03-13T13:16:26;4.55;;;1.65;;
6475;SDS011;3271;51.910;5.840;2023-03-13T13:18:52;3.15;;;1.45;;
6475;SDS011;3271;51.910;5.840;2023-03-13T13:21:19;3.05;;;1.77;;
6475;SDS011;3271;51.910;5.840;2023-03-13T13:23:47;3.42;;;2.15;;
6475;SDS011;3271;51.910;5.840;2023-03-13T13:36:55;5.00;;;2.05;;
6475;SDS011;3271;51.910;5.840;2023-03-13T13:41:59;2.85;;;1.35;;
6475;SDS011;3271;51.910;5.840;2023-03-13T13:44:28;2.55;;;1.38;;
6475;SDS011;3271;51.910;5.840;2023-03-13T13:46:55;3.03;;;1.10;;
6475;SDS011;3271;51.910;5.840;2023-03-13T13:49:24;4.25;;;1.40;;
6475;SDS011;3271;51.910;5.840;2023-03-13T13:54:31;3.78;;;1.50;;
6475;SDS011;3271;51.910;5.840;2023-03-13T13:57:07;3.05;;;1.38;;
6475;SDS011;3271;51.910;5.840;2023-03-13T13:59:39;4.20;;;1.70;;
6475;SDS011;3271;51.910;5.840;2023-03-13T14:04:35;3.78;;;1.45;;
6475;SDS011;3271;51.910;5.840;2023-03-13T14:07:03;2.30;;;1.40;;
6475;SDS011;3271;51.910;5.840;2023-03-13T14:11:56;2.83;;;1.33;;
6475;SDS011;3271;51.910;5.840;2023-03-13T14:14:22;3.90;;;1.52;;
6475;SDS011;3271;51.910;5.840;2023-03-13T14:16:49;3.13;;;1.45;;
6475;SDS011;3271;51.910;5.840;2023-03-13T14:19:26;2.13;;;1.40;;
6475;SDS011;3271;51.910;5.840;2023-03-13T14:21:58;4.90;;;1.67;;
6475;SDS011;3271;51.910;5.840;2023-03-13T14:24:24;3.33;;;1.17;;
6475;SDS011;3271;51.910;5.840;2023-03-13T14:26:50;2.65;;;1.30;;
6475;SDS011;3271;51.910;5.840;2023-03-13T14:29:17;2.85;;;1.17;;
6475;SDS011;3271;51.910;5.840;2023-03-13T14:31:51;1.85;;;1.23;;
6475;SDS011;3271;51.910;5.840;2023-03-13T14:34:18;3.20;;;1.27;;
6475;SDS011;3271;51.910;5.840;2023-03-13T14:36:45;2.33;;;1.30;;
6475;SDS011;3271;51.910;5.840;2023-03-13T14:39:15;4.07;;;1.42;;
6475;SDS011;3271;51.910;5.840;2023-03-13T14:41:43;4.65;;;1.77;;
6475;SDS011;3271;51.910;5.840;2023-03-13T14:46:42;3.65;;;1.30;;
6475;SDS011;3271;51.910;5.840;2023-03-13T14:49:15;4.45;;;1.60;;
6475;SDS011;3271;51.910;5.840;2023-03-13T14:51:43;4.57;;;1.40;;
6475;SDS011;3271;51.910;5.840;2023-03-13T14:54:31;3.13;;;1.33;;
6475;SDS011;3271;51.910;5.840;2023-03-13T14:57:11;2.72;;;1.35;;
6475;SDS011;3271;51.910;5.840;2023-03-13T14:59:38;4.10;;;1.50;;
6475;SDS011;3271;51.910;5.840;2023-03-13T15:04:57;5.63;;;1.67;;
6475;SDS011;3271;51.910;5.840;2023-03-13T15:07:26;4.32;;;1.25;;
6475;SDS011;3271;51.910;5.840;2023-03-13T15:09:52;4.03;;;1.60;;
6475;SDS011;3271;51.910;5.840;2023-03-13T15:12:21;3.13;;;1.42;;
6475;SDS011;3271;51.910;5.840;2023-03-13T15:14:49;4.93;;;1.40;;
6475;SDS011;3271;51.910;5.840;2023-03-13T15:19:41;5.25;;;1.67;;
6475;SDS011;3271;51.910;5.840;2023-03-13T15:22:13;4.10;;;1.45;;
6475;SDS011;3271;51.910;5.840;2023-03-13T15:24:40;6.32;;;1.67;;
6475;SDS011;3271;51.910;5.840;2023-03-13T15:27:16;5.25;;;1.90;;
6475;SDS011;3271;51.910;5.840;2023-03-13T15:29:45;7.40;;;2.13;;
6475;SDS011;3271;51.910;5.840;2023-03-13T15:32:13;4.53;;;1.73;;
6475;SDS011;3271;51.910;5.840;2023-03-13T15:34:41;4.25;;;1.55;;
6475;SDS011;3271;51.910;5.840;2023-03-13T15:37:09;2.47;;;1.52;;
6475;SDS011;3271;51.910;5.840;2023-03-13T15:39:36;5.25;;;2.20;;
6475;SDS011;3271;51.910;5.840;2023-03-13T15:42:02;3.47;;;1.60;;
6475;SDS011;3271;51.910;5.840;2023-03-13T15:44:27;4.15;;;1.95;;
6475;SDS011;3271;51.910;5.840;2023-03-13T15:46:53;6.60;;;1.67;;
6475;SDS011;3271;51.910;5.840;2023-03-13T15:49:19;6.82;;;2.50;;
6475;SDS011;3271;51.910;5.840;2023-03-13T15:51:45;4.78;;;2.20;;
6475;SDS011;3271;51.910;5.840;2023-03-13T15:54:11;6.43;;;1.98;;
6475;SDS011;3271;51.910;5.840;2023-03-13T15:56:37;5.35;;;2.22;;
6475;SDS011;3271;51.910;5.840;2023-03-13T15:59:08;8.20;;;2.38;;
6475;SDS011;3271;51.910;5.840;2023-03-13T16:01:34;6.40;;;2.05;;
6475;SDS011;3271;51.910;5.840;2023-03-13T16:04:00;6.45;;;1.83;;
6475;SDS011;3271;51.910;5.840;2023-03-13T16:06:26;8.13;;;2.50;;
6475;SDS011;3271;51.910;5.840;2023-03-13T16:08:55;7.18;;;2.15;;
6475;SDS011;3271;51.910;5.840;2023-03-13T16:11:22;4.97;;;1.95;;
6475;SDS011;3271;51.910;5.840;2023-03-13T16:13:48;5.90;;;2.20;;
6475;SDS011;3271;51.910;5.840;2023-03-13T16:16:19;4.35;;;1.70;;
6475;SDS011;3271;51.910;5.840;2023-03-13T16:18:46;3.97;;;1.63;;
6475;SDS011;3271;51.910;5.840;2023-03-13T16:21:14;2.42;;;1.33;;
6475;SDS011;3271;51.910;5.840;2023-03-13T16:23:42;5.47;;;1.60;;
6475;SDS011;3271;51.910;5.840;2023-03-13T16:26:15;1.95;;;1.20;;
6475;SDS011;3271;51.910;5.840;2023-03-13T16:28:42;4.28;;;1.73;;
6475;SDS011;3271;51.910;5.840;2023-03-13T16:31:14;3.08;;;1.85;;
6475;SDS011;3271;51.910;5.840;2023-03-13T16:33:40;2.35;;;1.23;;
6475;SDS011;3271;51.910;5.840;2023-03-13T16:36:09;5.95;;;1.70;;
6475;SDS011;3271;51.910;5.840;2023-03-13T16:38:37;2.55;;;1.30;;
6475;SDS011;3271;51.910;5.840;2023-03-13T16:41:03;4.82;;;1.42;;